Time;durP1;ratioP1;P1;durP2;ratioP2;P2;SDS_P1;SDS_P2;PMS_P1;PMS_P2;Temp;Humidity;BMP_temperature;BMP_pressure;BME280_temperature;BME280_humidity;BME280_pressure;Samples;Min_cycle;Max_cycle;Signal;HPM_P1;HPM_P2
2023/02/10 00:01:39;;;;;;;21.50;10.02;;;;;;;3.00;100.00;103635.84;5049087;28;20223;-64
2023/02/10 00:04:05;;;;;;;26.45;11.10;;;;;;;2.99;100.00;103638.38;5048999;28;20219;-67
2023/02/10 00:06:31;;;;;;;25.85;10.50;;;;;;;2.99;100.00;103635.75;5048833;28;20033;-58
2023/02/10 00:08:58;;;;;;;36.28;10.10;;;;;;;2.99;100.00;103638.38;5048633;28;20040;-63
2023/02/10 00:14:08;;;;;;;25.58;10.52;;;;;;;2.94;100.00;103635.56;5046268;28;20109;-59
2023/02/10 00:16:34;;;;;;;22.63;10.68;;;;;;;2.98;100.00;103637.47;5027828;28;20025;-64
2023/02/10 00:18:59;;;;;;;27.88;10.25;;;;;;;2.93;100.00;103625.97;5028711;28;20496;-66
2023/02/10 00:21:24;;;;;;;25.05;9.15;;;;;;;2.92;100.00;103632.00;5028474;28;20151;-65
2023/02/10 00:23:50;;;;;;;21.00;9.95;;;;;;;2.94;100.00;103632.97;5028886;28;20022;-67
2023/02/10 00:26:15;;;;;;;29.40;10.30;;;;;;;2.94;100.00;103630.34;5028781;28;20546;-64
2023/02/10 00:28:40;;;;;;;32.35;11.07;;;;;;;2.93;100.00;103628.59;5027444;28;20562;-66
2023/02/10 00:31:15;;;;;;;32.17;11.32;;;;;;;2.95;100.00;103626.03;5036887;28;20025;-59
2023/02/10 00:33:41;;;;;;;26.05;10.55;;;;;;;2.92;100.00;103618.97;5047913;28;20032;-66
2023/02/10 00:36:09;;;;;;;36.22;11.57;;;;;;;2.94;100.00;103612.13;5048299;28;20098;-66
2023/02/10 00:38:35;;;;;;;32.95;11.27;;;;;;;2.92;100.00;103615.50;5030547;28;20369;-67
2023/02/10 00:41:03;;;;;;;34.63;11.05;;;;;;;2.93;100.00;103614.66;5047558;28;20063;-65
2023/02/10 00:43:28;;;;;;;34.17;12.23;;;;;;;2.90;100.00;103616.31;5048080;28;20429;-65
2023/02/10 00:45:53;;;;;;;29.27;12.93;;;;;;;2.90;100.00;103618.94;5040912;28;20105;-67
2023/02/10 00:48:19;;;;;;;31.10;12.18;;;;;;;2.86;100.00;103618.72;5028810;28;20122;-66
2023/02/10 00:50:44;;;;;;;26.38;11.38;;;;;;;2.77;100.00;103622.69;5039210;28;20063;-60
2023/02/10 00:53:09;;;;;;;29.42;12.88;;;;;;;2.71;100.00;103625.03;5047721;28;20033;-67
2023/02/10 00:55:35;;;;;;;24.42;12.15;;;;;;;2.65;100.00;103627.38;5047270;28;20032;-64
2023/02/10 00:58:00;;;;;;;33.00;12.20;;;;;;;2.62;100.00;103630.72;5047964;28;20491;-70
2023/02/10 01:00:25;;;;;;;30.60;12.80;;;;;;;2.61;100.00;103628.03;5046352;28;20040;-68
2023/02/10 01:02:51;;;;;;;28.85;12.35;;;;;;;2.60;100.00;103631.47;5047907;28;20021;-62
2023/02/10 01:05:16;;;;;;;30.58;12.85;;;;;;;2.58;100.00;103633.09;5048131;28;20032;-67
2023/02/10 01:07:42;;;;;;;26.70;13.48;;;;;;;2.56;100.00;103634.78;5048036;28;20431;-66
2023/02/10 01:10:07;;;;;;;39.38;14.63;;;;;;;2.50;100.00;103638.00;5047759;28;20017;-58
2023/02/10 01:12:32;;;;;;;34.25;14.18;;;;;;;2.51;100.00;103634.56;5046404;28;20059;-68
2023/02/10 01:14:58;;;;;;;33.25;13.43;;;;;;;2.53;100.00;103632.94;5046053;28;20117;-65
2023/02/10 01:17:23;;;;;;;33.90;15.27;;;;;;;2.53;100.00;103636.41;5046387;28;20387;-65
2023/02/10 01:19:50;;;;;;;38.33;15.05;;;;;;;2.54;100.00;103639.91;5047661;28;20025;-60
2023/02/10 01:22:16;;;;;;;36.67;15.07;;;;;;;2.51;100.00;103640.66;5047063;28;20033;-64
2023/02/10 01:24:41;;;;;;;36.08;14.80;;;;;;;2.48;100.00;103640.53;5047318;28;20029;-67
2023/02/10 01:27:07;;;;;;;33.33;15.25;;;;;;;2.48;100.00;103634.41;5047619;28;20035;-63
2023/02/10 01:29:32;;;;;;;30.25;15.00;;;;;;;2.46;100.00;103644.75;5046536;28;20041;-62
2023/02/10 01:31:57;;;;;;;33.75;15.75;;;;;;;2.43;100.00;103646.31;5047172;28;20082;-67
2023/02/10 01:34:23;;;;;;;42.10;16.80;;;;;;;2.40;100.00;103644.47;5047134;28;20151;-64
2023/02/10 01:36:48;;;;;;;43.53;17.15;;;;;;;2.41;100.00;103651.47;5047643;28;20045;-65
2023/02/10 01:39:15;;;;;;;44.85;17.85;;;;;;;2.42;100.00;103657.56;5042699;28;20029;-67
2023/02/10 01:41:40;;;;;;;44.95;18.65;;;;;;;2.43;100.00;103655.03;5041185;28;20116;-65
2023/02/10 01:44:26;;;;;;;48.72;20.25;;;;;;;2.48;100.00;103655.25;5046627;28;20108;-67
2023/02/10 01:46:51;;;;;;;52.40;20.17;;;;;;;2.56;100.00;103655.59;5046762;28;20025;-55
2023/02/10 01:49:18;;;;;;;47.08;19.30;;;;;;;2.56;100.00;103658.19;5029639;28;20639;-67
2023/02/10 01:51:52;;;;;;;48.92;19.55;;;;;;;2.57;100.00;103665.19;5047056;28;20021;-68
2023/02/10 01:54:30;;;;;;;51.72;19.92;;;;;;;2.52;100.00;103665.88;5024848;28;20030;-67
2023/02/10 01:56:57;;;;;;;57.00;19.90;;;;;;;2.52;100.00;103657.16;5010057;28;20152;-61
2023/02/10 01:59:26;;;;;;;47.10;20.73;;;;;;;2.52;100.00;103668.47;5026808;28;20028;-60
2023/02/10 02:01:51;;;;;;;45.17;20.48;;;;;;;2.52;100.00;103662.38;5027116;28;20103;-59
2023/02/10 02:04:17;;;;;;;50.00;20.67;;;;;;;2.55;100.00;103654.69;5027074;28;20030;-64
2023/02/10 02:06:42;;;;;;;55.70;21.15;;;;;;;2.57;100.00;103653.06;5025979;28;20025;-66
2023/02/10 02:09:08;;;;;;;57.58;22.23;;;;;;;2.60;100.00;103650.59;5027304;28;20030;-65
2023/02/10 02:11:55;;;;;;;54.80;21.10;;;;;;;2.62;100.00;103650.69;5027176;28;20029;-68
2023/02/10 02:14:32;;;;;;;62.65;21.65;;;;;;;2.65;100.00;103643.00;5026808;28;20363;-68
2023/02/10 02:17:06;;;;;;;48.95;21.10;;;;;;;2.65;100.00;103641.28;5009613;28;20744;-66
2023/02/10 02:22:59;;;;;;;49.67;21.02;;;;;;;2.62;100.00;103638.53;5026451;28;20096;-67
2023/02/10 02:25:43;;;;;;;62.53;21.60;;;;;;;2.63;100.00;103652.44;5011404;28;20132;-58
2023/02/10 02:28:48;;;;;;;46.17;20.10;;;;;;;2.67;100.00;103648.28;5025650;28;20037;-62
2023/02/10 02:31:40;;;;;;;53.50;20.92;;;;;;;2.64;100.00;103656.81;5027180;28;20179;-66
2023/02/10 02:34:32;;;;;;;45.22;20.65;;;;;;;2.60;100.00;103657.50;5026686;28;20468;-67
2023/02/10 02:37:00;;;;;;;50.45;20.85;;;;;;;2.58;100.00;103657.44;5027093;28;20601;-68
2023/02/10 02:39:27;;;;;;;53.15;21.63;;;;;;;2.58;100.00;103666.94;5042010;28;20053;-63
2023/02/10 02:42:19;;;;;;;53.85;20.38;;;;;;;2.60;100.00;103666.22;5027194;28;20025;-63
2023/02/10 02:44:47;;;;;;;56.63;21.65;;;;;;;2.60;100.00;103673.13;5039191;28;20025;-56
2023/02/10 02:47:19;;;;;;;47.50;19.80;;;;;;;2.57;100.00;103676.50;5028414;28;20036;-62
2023/02/10 02:50:09;;;;;;;42.42;19.40;;;;;;;2.50;100.00;103682.25;5028242;28;20536;-65
2023/02/10 02:52:54;;;;;;;45.65;17.92;;;;;;;2.37;100.00;103676.47;5030803;28;20029;-60
2023/02/10 02:55:25;;;;;;;47.13;18.38;;;;;;;2.34;100.00;103672.81;5048654;28;20479;-66
2023/02/10 02:57:54;;;;;;;45.10;19.20;;;;;;;2.37;100.00;103672.97;5049937;28;20029;-67
2023/02/10 03:00:23;;;;;;;51.72;18.48;;;;;;;2.42;100.00;103673.19;5048570;28;20353;-63
2023/02/10 03:02:49;;;;;;;52.88;18.25;;;;;;;2.42;100.00;103671.47;5031575;28;20039;-67
2023/02/10 03:05:21;;;;;;;45.38;18.23;;;;;;;2.45;100.00;103676.81;5049818;28;20037;-62
2023/02/10 03:07:46;;;;;;;49.28;18.08;;;;;;;2.50;100.00;103679.66;5050040;28;20084;-63
2023/02/10 03:10:12;;;;;;;70.13;19.38;;;;;;;2.49;100.00;103673.53;5049952;28;20606;-67
2023/02/10 03:12:37;;;;;;;40.90;17.42;;;;;;;2.50;100.00;103679.66;5049688;28;20036;-60
2023/02/10 03:15:03;;;;;;;43.42;17.27;;;;;;;2.50;100.00;103680.50;5048214;28;20096;-63
2023/02/10 03:17:28;;;;;;;46.75;17.35;;;;;;;2.48;100.00;103682.19;5049450;28;20560;-66
2023/02/10 03:19:53;;;;;;;40.80;16.77;;;;;;;2.47;100.00;103679.50;5049462;28;20060;-66
2023/02/10 03:22:19;;;;;;;38.10;16.75;;;;;;;2.45;100.00;103681.13;5049877;28;20104;-60
2023/02/10 03:24:44;;;;;;;48.60;17.08;;;;;;;2.45;100.00;103682.03;5049637;28;20094;-66
2023/02/10 03:27:09;;;;;;;40.53;17.02;;;;;;;2.47;100.00;103688.19;5050319;28;20037;-62
2023/02/10 03:29:35;;;;;;;46.90;16.55;;;;;;;2.44;100.00;103684.56;5048921;28;20032;-68
2023/02/10 03:32:01;;;;;;;48.90;16.45;;;;;;;2.40;100.00;103681.81;5049590;28;20415;-63
2023/02/10 03:34:27;;;;;;;42.10;16.00;;;;;;;2.35;100.00;103682.44;5048824;28;20494;-64
2023/02/10 03:36:53;;;;;;;42.67;17.10;;;;;;;2.25;100.00;103674.19;5049637;28;20024;-65
2023/02/10 03:39:18;;;;;;;37.47;16.27;;;;;;;2.17;100.00;103678.16;5049884;28;20033;-66
2023/02/10 03:41:43;;;;;;;48.33;16.25;;;;;;;2.08;100.00;103681.19;5049505;28;20033;-64
2023/02/10 03:44:09;;;;;;;43.30;17.13;;;;;;;2.04;100.00;103679.25;5048055;28;20024;-67
2023/02/10 03:46:36;;;;;;;36.72;16.25;;;;;;;2.02;100.00;103680.91;5047864;28;20048;-66
2023/02/10 03:49:02;;;;;;;43.25;15.52;;;;;;;1.95;100.00;103677.09;5048471;28;20028;-65
2023/02/10 03:51:28;;;;;;;43.30;15.40;;;;;;;1.91;100.00;103680.38;5048689;28;20028;-66
2023/02/10 03:53:53;;;;;;;43.63;15.70;;;;;;;1.83;100.00;103674.81;5046628;28;20101;-62
2023/02/10 03:56:18;;;;;;;38.35;17.15;;;;;;;1.80;100.00;103676.38;5049360;28;20097;-62
2023/02/10 03:58:44;;;;;;;53.80;16.85;;;;;;;1.76;100.00;103672.72;5048148;28;20037;-66
2023/02/10 04:01:14;;;;;;;30.95;15.70;;;;;;;1.69;100.00;103671.56;5049077;28;20033;-64
2023/02/10 04:03:39;;;;;;;48.10;18.30;;;;;;;1.70;100.00;103677.63;5029836;28;20033;-64
2023/02/10 04:06:05;;;;;;;47.45;17.60;;;;;;;1.68;100.00;103676.69;5048913;28;20021;-67
2023/02/10 04:08:30;;;;;;;50.78;18.70;;;;;;;1.68;100.00;103674.94;5048679;28;20039;-56
2023/02/10 04:10:55;;;;;;;44.03;17.70;;;;;;;1.74;100.00;103677.84;5048893;28;20483;-62
2023/02/10 04:13:21;;;;;;;41.60;18.10;;;;;;;1.78;100.00;103678.91;5046906;28;20045;-59
2023/02/10 04:15:47;;;;;;;50.30;17.73;;;;;;;1.82;100.00;103682.53;5048907;28;20127;-66
2023/02/10 04:18:13;;;;;;;47.13;18.10;;;;;;;1.83;100.00;103679.09;5047726;28;20120;-65
2023/02/10 04:20:38;;;;;;;59.40;20.05;;;;;;;1.90;100.00;103678.63;5048372;28;20132;-69
2023/02/10 04:23:04;;;;;;;49.67;18.20;;;;;;;1.92;100.00;103689.09;5048773;28;20063;-66
2023/02/10 04:25:29;;;;;;;42.90;18.52;;;;;;;1.96;100.00;103685.81;5048233;28;20095;-65
2023/02/10 04:27:54;;;;;;;58.20;20.05;;;;;;;1.97;100.00;103684.97;5048538;28;20171;-67
2023/02/10 04:30:20;;;;;;;55.83;20.60;;;;;;;1.99;100.00;103686.84;5048242;28;20037;-65
2023/02/10 04:32:45;;;;;;;44.58;19.00;;;;;;;2.03;100.00;103693.09;5048114;28;20027;-66
2023/02/10 04:35:10;;;;;;;62.33;20.33;;;;;;;2.01;100.00;103689.50;5048633;28;20395;-59
2023/02/10 04:37:36;;;;;;;49.67;20.33;;;;;;;2.03;100.00;103682.69;5048225;28;20035;-63
2023/02/10 04:40:01;;;;;;;59.22;20.42;;;;;;;2.02;100.00;103686.13;5048495;28;20065;-66
2023/02/10 04:42:29;;;;;;;47.42;21.17;;;;;;;2.05;100.00;103681.06;5047391;28;20500;-59
2023/02/10 04:44:57;;;;;;;57.15;20.35;;;;;;;2.05;100.00;103681.06;5044257;28;20024;-67
2023/02/10 04:47:26;;;;;;;56.58;22.33;;;;;;;1.98;100.00;103679.84;5047140;28;20055;-57
2023/02/10 04:49:51;;;;;;;;;;;;;;;1.95;100.00;103671.91;5048485;28;20024;-52
2023/02/10 04:52:16;;;;;;;55.15;21.23;;;;;;;1.86;100.00;103674.97;5048285;28;20371;-67
2023/02/10 04:54:42;;;;;;;50.10;22.05;;;;;;;1.76;100.00;103681.44;5048077;28;20475;-66
2023/02/10 04:57:07;;;;;;;54.63;21.98;;;;;;;1.68;100.00;103682.75;5048483;28;20033;-63
2023/02/10 04:59:32;;;;;;;55.05;21.13;;;;;;;1.62;100.00;103685.94;5047378;28;20055;-65
2023/02/10 05:01:58;;;;;;;55.67;22.73;;;;;;;1.59;100.00;103685.78;5047899;28;20033;-67
2023/02/10 05:04:23;;;;;;;56.63;23.58;;;;;;;1.55;100.00;103680.34;5047886;28;20029;-66
2023/02/10 05:06:48;;;;;;;61.33;23.95;;;;;;;1.47;100.00;103670.47;5048042;28;20470;-61
2023/02/10 05:09:14;;;;;;;66.03;24.05;;;;;;;1.45;100.00;103673.81;5047641;28;20706;-66
2023/02/10 05:11:40;;;;;;;64.00;25.05;;;;;;;1.42;100.00;103666.78;5046049;28;20096;-66
2023/02/10 05:14:06;;;;;;;60.95;23.08;;;;;;;1.44;100.00;103672.03;5034984;28;20027;-67
2023/02/10 05:16:31;;;;;;;70.90;25.00;;;;;;;1.47;100.00;103680.88;5029071;28;20025;-69
2023/02/10 05:18:56;;;;;;;68.50;25.52;;;;;;;1.47;100.00;103674.75;5042819;28;20048;-67
2023/02/10 05:21:22;;;;;;;67.00;26.25;;;;;;;1.50;100.00;103670.63;5028995;28;20064;-66
2023/02/10 05:23:47;;;;;;;67.75;26.75;;;;;;;1.54;100.00;103671.69;5046937;28;20028;-68
2023/02/10 05:26:13;;;;;;;78.50;28.25;;;;;;;1.55;100.00;103667.34;5047101;28;20381;-64
2023/02/10 05:28:38;;;;;;;75.00;26.38;;;;;;;1.57;100.00;103673.53;5043122;28;20037;-66
2023/02/10 05:31:06;;;;;;;68.88;26.13;;;;;;;1.59;100.00;103674.47;5044053;28;20028;-63
2023/02/10 05:33:32;;;;;;;70.40;26.92;;;;;;;1.59;100.00;103682.28;5046364;28;20033;-61
2023/02/10 05:35:57;;;;;;;78.30;27.48;;;;;;;1.59;100.00;103679.69;5046736;28;20048;-67
2023/02/10 05:38:22;;;;;;;80.45;27.98;;;;;;;1.59;100.00;103677.09;5046796;28;20821;-62
2023/02/10 05:40:48;;;;;;;67.82;25.63;;;;;;;1.61;100.00;103671.16;5047682;28;20486;-67
2023/02/10 05:43:14;;;;;;;78.22;28.90;;;;;;;1.67;100.00;103664.47;5046354;28;20081;-64
2023/02/10 05:45:41;;;;;;;85.70;27.30;;;;;;;1.72;100.00;103658.66;5045845;28;20033;-63
2023/02/10 05:48:07;;;;;;;66.80;26.00;;;;;;;1.76;100.00;103654.53;5045736;28;20060;-67
2023/02/10 05:50:33;;;;;;;75.97;27.60;;;;;;;1.79;100.00;103651.19;5023407;28;20042;-63
2023/02/10 05:52:58;;;;;;;79.28;28.52;;;;;;;1.83;100.00;103650.50;5044134;28;20021;-62
2023/02/10 05:55:24;;;;;;;77.15;27.20;;;;;;;1.81;100.00;103650.47;5046508;28;20031;-69
2023/02/10 05:57:51;;;;;;;77.43;27.52;;;;;;;1.86;100.00;103655.84;5047273;28;20035;-63
2023/02/10 06:00:17;;;;;;;70.32;26.75;;;;;;;1.86;100.00;103663.66;5045888;28;20067;-67
2023/02/10 06:02:42;;;;;;;70.78;25.42;;;;;;;1.85;100.00;103667.06;5047465;28;20041;-64
2023/02/10 06:05:08;;;;;;;58.58;24.88;;;;;;;1.79;100.00;103677.19;5046108;28;20494;-65
2023/02/10 06:07:33;;;;;;;70.90;25.73;;;;;;;1.75;100.00;103684.81;5046746;28;20029;-66
2023/02/10 06:09:58;;;;;;;71.78;25.45;;;;;;;1.73;100.00;103688.19;5047146;28;20040;-65
2023/02/10 06:12:24;;;;;;;71.95;26.75;;;;;;;1.74;100.00;103685.66;5045180;28;20048;-67
2023/02/10 06:14:49;;;;;;;70.22;27.63;;;;;;;1.70;100.00;103683.72;5046785;28;20029;-64
2023/02/10 06:17:15;;;;;;;67.78;28.13;;;;;;;1.68;100.00;103687.94;5046211;28;20036;-62
2023/02/10 06:19:40;;;;;;;75.53;26.45;;;;;;;1.67;100.00;103686.16;5047019;28;20025;-65
2023/02/10 06:22:07;;;;;;;59.08;25.92;;;;;;;1.69;100.00;103684.56;5047026;28;20032;-68
2023/02/10 06:24:33;;;;;;;65.35;25.63;;;;;;;1.67;100.00;103688.78;5046658;28;20037;-68
2023/02/10 06:26:58;;;;;;;74.45;28.38;;;;;;;1.61;100.00;103683.25;5048536;28;20045;-62
2023/02/10 06:29:24;;;;;;;59.92;25.02;;;;;;;1.55;100.00;103694.25;5049517;28;20037;-63
2023/02/10 06:31:49;;;;;;;62.40;24.55;;;;;;;1.51;100.00;103710.50;5051120;28;20033;-67
2023/02/10 06:34:14;;;;;;;60.45;24.27;;;;;;;1.51;100.00;103715.72;5050984;28;20021;-68
2023/02/10 06:36:40;;;;;;;55.55;23.40;;;;;;;1.44;100.00;103713.63;5050550;28;20021;-64
2023/02/10 06:39:05;;;;;;;53.95;22.02;;;;;;;1.32;100.00;103712.16;5050776;28;20544;-66
2023/02/10 06:41:31;;;;;;;53.15;23.88;;;;;;;1.32;100.00;103719.09;5046624;28;20030;-66
2023/02/10 06:43:56;;;;;;;44.75;20.58;;;;;;;1.32;100.00;103719.94;5029974;28;20087;-64
2023/02/10 06:46:22;;;;;;;45.60;21.98;;;;;;;1.36;100.00;103718.41;5030076;28;20028;-64
2023/02/10 06:48:47;;;;;;;51.03;21.38;;;;;;;1.39;100.00;103718.56;5030373;28;20124;-67
2023/02/10 06:51:13;;;;;;;50.50;21.83;;;;;;;1.41;100.00;103722.13;5030311;28;20032;-55
2023/02/10 06:53:38;;;;;;;48.45;22.05;;;;;;;1.43;100.00;103712.72;5030137;28;20037;-65
2023/02/10 06:56:04;;;;;;;48.42;22.60;;;;;;;1.45;100.00;103702.41;5030396;28;20093;-60
2023/02/10 06:58:29;;;;;;;51.20;20.05;;;;;;;1.48;100.00;103697.38;5029611;28;20025;-67
2023/02/10 07:00:54;;;;;;;43.75;20.60;;;;;;;1.47;100.00;103687.75;5030418;28;20036;-63
2023/02/10 07:03:20;;;;;;;43.95;19.63;;;;;;;1.55;100.00;103689.06;5047137;28;20365;-63
2023/02/10 07:05:45;;;;;;;43.65;21.02;;;;;;;1.57;100.00;103683.94;5049210;28;20506;-67
2023/02/10 07:08:10;;;;;;;39.53;19.75;;;;;;;1.58;100.00;103688.31;5048103;28;20691;-64
2023/02/10 07:10:36;;;;;;;44.92;20.08;;;;;;;1.57;100.00;103691.72;5048019;28;20021;-62
2023/02/10 07:13:01;;;;;;;39.13;19.33;;;;;;;1.57;100.00;103696.94;5046820;28;20090;-66
2023/02/10 07:15:27;;;;;;;38.25;19.40;;;;;;;1.54;100.00;103697.66;5041561;28;20412;-69
2023/02/10 07:17:52;;;;;;;33.50;19.13;;;;;;;1.57;100.00;103703.03;5039196;28;20021;-67
2023/02/10 07:20:18;;;;;;;37.72;20.23;;;;;;;1.60;100.00;103704.88;5039544;28;20027;-62
2023/02/10 07:22:43;;;;;;;42.08;20.65;;;;;;;1.57;100.00;103716.03;5036946;28;20017;-66
2023/02/10 07:25:09;;;;;;;35.38;18.70;;;;;;;1.54;100.00;103712.38;5042405;28;20033;-67
2023/02/10 07:27:34;;;;;;;36.60;19.40;;;;;;;1.57;100.00;103725.53;5054192;28;20475;-62
2023/02/10 07:30:00;;;;;;;37.60;20.13;;;;;;;1.54;100.00;103728.88;5057396;28;20435;-60
2023/02/10 07:32:25;;;;;;;37.47;19.20;;;;;;;1.60;100.00;103736.94;5053318;28;20083;-65
2023/02/10 07:34:51;;;;;;;53.53;22.42;;;;;;;1.63;100.00;103744.03;5053311;28;20025;-69
2023/02/10 07:37:16;;;;;;;44.80;20.60;;;;;;;1.64;100.00;103745.81;5050972;28;20033;-64
2023/02/10 07:39:42;;;;;;;38.70;20.13;;;;;;;1.67;100.00;103745.06;5048727;28;20029;-68
2023/02/10 07:42:07;;;;;;;32.83;20.02;;;;;;;1.67;100.00;103745.06;5031703;28;20120;-66
2023/02/10 07:44:32;;;;;;;40.85;19.92;;;;;;;1.70;100.00;103735.72;5047626;28;20056;-55
2023/02/10 07:46:58;;;;;;;40.63;20.10;;;;;;;1.62;100.00;103724.03;5048136;28;20424;-69
2023/02/10 07:49:24;;;;;;;41.22;21.30;;;;;;;1.75;100.00;103735.94;5047712;28;20391;-64
2023/02/10 07:51:49;;;;;;;41.20;21.30;;;;;;;1.75;100.00;103739.41;5053455;28;20029;-58
2023/02/10 07:54:15;;;;;;;43.33;20.77;;;;;;;1.81;100.00;103738.88;5059298;28;20104;-67
2023/02/10 07:56:40;;;;;;;42.05;21.35;;;;;;;1.83;100.00;103737.22;5038905;28;20128;-64
2023/02/10 07:59:06;;;;;;;45.92;22.38;;;;;;;1.88;100.00;103740.94;5057562;28;20062;-67
2023/02/10 08:01:31;;;;;;;41.38;21.85;;;;;;;1.92;100.00;103754.97;5057014;28;20025;-59
2023/02/10 08:03:57;;;;;;;41.88;22.77;;;;;;;1.98;100.00;103755.28;5056443;28;20031;-67
2023/02/10 08:06:25;;;;;;;42.67;21.92;;;;;;;1.96;100.00;103764.72;5050847;28;20104;-64
2023/02/10 08:08:51;;;;;;;43.45;22.23;;;;;;;1.95;100.00;103752.53;5040517;28;20024;-61
2023/02/10 08:11:17;;;;;;;44.80;23.08;;;;;;;1.97;100.00;103753.50;5052405;28;20543;-66
2023/02/10 08:13:43;;;;;;;42.33;22.48;;;;;;;1.95;100.00;103756.81;5055256;28;20025;-63
2023/02/10 08:16:11;;;;;;;48.30;22.58;;;;;;;1.95;100.00;103755.13;5035897;28;20031;-66
2023/02/10 08:18:39;;;;;;;45.25;23.88;;;;;;;1.96;100.00;103754.31;5051562;28;20032;-67
2023/02/10 08:21:05;;;;;;;41.00;21.48;;;;;;;1.94;100.00;103755.97;5055153;28;20020;-66
2023/02/10 08:23:31;;;;;;;44.22;22.85;;;;;;;1.91;100.00;103755.81;5056122;28;20071;-65
2023/02/10 08:25:56;;;;;;;41.35;23.17;;;;;;;1.94;100.00;103761.16;5056705;28;20041;-65
2023/02/10 08:28:22;;;;;;;45.70;23.88;;;;;;;1.94;100.00;103755.97;5055199;28;20035;-66
2023/02/10 08:30:47;;;;;;;40.10;23.08;;;;;;;1.95;100.00;103751.63;5048009;28;20512;-56
2023/02/10 08:33:12;;;;;;;49.50;25.15;;;;;;;2.11;100.00;103751.56;5055911;28;20028;-67
2023/02/10 08:35:39;;;;;;;42.58;23.13;;;;;;;2.15;100.00;103750.03;5051659;28;20053;-67
2023/02/10 08:38:05;;;;;;;42.22;22.83;;;;;;;2.19;100.00;103757.16;5052737;28;20310;-56
2023/02/10 08:40:30;;;;;;;47.38;25.35;;;;;;;2.21;100.00;103750.31;5050747;28;20075;-68
2023/02/10 08:42:56;;;;;;;51.90;23.83;;;;;;;2.22;100.00;103756.41;5040045;28;20028;-66
2023/02/10 08:45:21;;;;;;;46.63;23.33;;;;;;;2.20;100.00;103745.91;5049249;28;20060;-62
2023/02/10 08:47:47;;;;;;;40.70;22.92;;;;;;;2.34;100.00;103743.06;5048287;28;20025;-69
2023/02/10 08:50:12;;;;;;;44.80;24.10;;;;;;;2.39;100.00;103745.09;5049264;28;20082;-70
2023/02/10 08:52:38;;;;;;;49.88;22.88;;;;;;;2.41;100.00;103747.78;5035400;28;20125;-59
2023/02/10 08:55:04;;;;;;;46.92;24.02;;;;;;;2.45;100.00;103748.81;5047964;28;20042;-67
2023/02/10 08:57:30;;;;;;;44.42;23.17;;;;;;;2.55;100.00;103755.31;5057891;28;20036;-63
2023/02/10 08:59:55;;;;;;;49.53;22.92;;;;;;;2.64;100.00;103758.38;5057914;28;20028;-62
2023/02/10 09:02:21;;;;;;;48.08;22.58;;;;;;;2.68;100.00;103762.88;5055938;28;20052;-66
2023/02/10 09:04:46;;;;;;;46.53;24.02;;;;;;;2.75;100.00;103766.69;5056959;28;20532;-63
2023/02/10 09:07:13;;;;;;;49.05;23.88;;;;;;;2.83;100.00;103765.31;5049225;28;20029;-62
2023/02/10 09:09:41;;;;;;;44.15;23.70;;;;;;;2.87;100.00;103766.34;5048741;28;20028;-63
2023/02/10 09:12:10;;;;;;;37.25;21.75;;;;;;;2.97;100.00;103765.94;5056217;28;20040;-66
2023/02/10 09:14:36;;;;;;;48.15;23.88;;;;;;;3.03;100.00;103765.31;5037772;28;20138;-68
2023/02/10 09:17:01;;;;;;;47.47;24.63;;;;;;;3.05;100.00;103768.91;5059431;28;20111;-69
2023/02/10 09:19:27;;;;;;;46.33;24.00;;;;;;;3.15;100.00;103772.81;5055199;28;20352;-67
2023/02/10 09:21:52;;;;;;;49.15;24.08;;;;;;;3.25;100.00;103774.13;5056267;28;20087;-60
2023/02/10 09:24:18;;;;;;;47.03;22.77;;;;;;;3.32;100.00;103775.28;5048916;28;20071;-67
2023/02/10 09:26:43;;;;;;;42.05;23.17;;;;;;;3.38;100.00;103773.84;5038931;28;20037;-66
2023/02/10 09:29:12;;;;;;;45.95;23.77;;;;;;;3.46;100.00;103773.28;5045549;28;20327;-65
2023/02/10 09:31:37;;;;;;;44.38;23.48;;;;;;;3.52;100.00;103770.91;5046979;28;20155;-66
2023/02/10 09:34:03;;;;;;;39.75;21.70;;;;;;;3.58;100.00;103778.13;5045762;28;20039;-62
2023/02/10 09:36:28;;;;;;;43.38;22.73;;;;;;;3.63;100.00;103784.41;5044758;28;20040;-67
2023/02/10 09:38:57;;;;;;;44.80;21.95;;;;;;;3.67;100.00;103775.88;5046055;28;20025;-69
2023/02/10 09:41:34;;;;;;;42.85;22.92;;;;;;;3.78;100.00;103772.03;5036131;28;20029;-65
2023/02/10 09:44:26;;;;;;;45.63;22.42;;;;;;;3.84;100.00;103768.78;5029034;28;20029;-63
2023/02/10 09:47:13;;;;;;;44.13;21.77;;;;;;;4.01;100.00;103769.47;5026684;28;20033;-61
2023/02/10 09:49:48;;;;;;;38.58;20.75;;;;;;;4.06;100.00;103766.19;5044604;28;20032;-66
2023/02/10 09:52:41;;;;;;;36.00;19.95;;;;;;;4.27;100.00;103773.97;5042546;28;20555;-64
2023/02/10 09:55:13;;;;;;;40.42;20.63;;;;;;;4.45;100.00;103779.03;5045580;28;20033;-62
2023/02/10 09:57:42;;;;;;;38.70;20.73;;;;;;;4.41;100.00;103772.81;5025674;28;20021;-58
2023/02/10 10:00:34;;;;;;;36.80;19.60;;;;;;;4.40;100.00;103767.53;5027871;28;20056;-61
2023/02/10 10:03:03;;;;;;;33.22;18.35;;;;;;;4.49;100.00;103765.25;5018839;28;20037;-63
2023/02/10 10:05:44;;;;;;;38.15;19.38;;;;;;;4.50;100.00;103760.94;5031934;28;20040;-60
2023/02/10 10:08:19;;;;;;;33.90;18.20;;;;;;;4.71;100.00;103767.81;5049302;28;20029;-60
2023/02/10 10:10:45;;;;;;;38.13;19.73;;;;;;;4.73;100.00;103780.09;5047468;28;20028;-57
2023/02/10 10:13:15;;;;;;;34.58;20.08;;;;;;;4.70;100.00;103776.50;5049621;28;20426;-63
2023/02/10 10:15:58;;;;;;;40.22;18.05;;;;;;;4.78;100.00;103772.44;5032079;28;20128;-63
2023/02/10 10:18:53;;;;;;;35.28;18.70;;;;;;;4.95;100.00;103770.47;5049811;28;20690;-66
2023/02/10 10:21:52;;;;;;;31.08;17.20;;;;;;;5.02;100.00;103769.84;5029230;28;20152;-61
2023/02/10 10:24:23;;;;;;;;;;;;;;;5.17;100.00;103761.69;5023558;28;20104;-62
2023/02/10 10:27:11;;;;;;;32.67;16.20;;;;;;;5.25;100.00;103763.69;5057733;28;19944;-59
2023/02/10 10:29:55;;;;;;;36.40;15.83;;;;;;;5.38;100.00;103765.00;5069536;28;20037;-66
2023/02/10 10:32:38;;;;;;;27.38;14.35;;;;;;;5.47;100.00;103751.34;5070494;28;20479;-62
2023/02/10 10:35:12;;;;;;;35.25;15.02;;;;;;;5.45;100.00;103743.47;5051043;28;20032;-59
2023/02/10 10:37:37;;;;;;;36.22;15.63;;;;;;;5.51;100.00;103751.50;5036485;28;20028;-63
2023/02/10 10:40:07;;;;;;;28.75;15.10;;;;;;;5.67;100.00;103744.19;5033057;28;20078;-64
2023/02/10 10:42:53;;;;;;;27.98;13.85;;;;;;;5.73;100.00;103751.38;5049155;28;20025;-62
2023/02/10 10:45:25;;;;;;;29.83;13.43;;;;;;;5.66;100.00;103752.91;5049585;28;20035;-63
2023/02/10 10:47:56;;;;;;;25.30;13.68;;;;;;;5.77;100.00;103754.13;5030177;28;20443;-60
2023/02/10 10:50:22;;;;;;;24.15;13.10;;;;;;;5.89;100.00;103745.81;5047846;28;20028;-61
2023/02/10 10:52:51;;;;;;;25.33;12.77;;;;;;;5.90;100.00;103744.94;5047743;28;20029;-62
2023/02/10 10:55:32;;;;;;;;;;;;;;;6.09;100.00;103748.22;5048327;28;20028;-62
2023/02/10 10:58:00;;;;;;;23.70;12.60;;;;;;;6.23;100.00;103746.00;5048718;28;19913;-62
2023/02/10 11:00:28;;;;;;;26.13;12.43;;;;;;;6.30;100.00;103747.09;5049289;28;20124;-63
2023/02/10 11:03:07;;;;;;;21.23;12.70;;;;;;;6.44;100.00;103747.50;5049289;28;20025;-58
2023/02/10 11:05:36;;;;;;;25.48;12.10;;;;;;;6.51;100.00;103749.50;5049142;28;20021;-63
2023/02/10 11:08:02;;;;;;;24.17;14.07;;;;;;;6.61;100.00;103741.91;5047802;28;20028;-55
2023/02/10 11:10:39;;;;;;;23.40;13.00;;;;;;;6.73;100.00;103752.75;5030495;28;20049;-63
2023/02/10 11:13:05;;;;;;;26.17;12.13;;;;;;;6.73;100.00;103755.38;5046583;28;20021;-60
2023/02/10 11:15:38;;;;;;;22.40;12.40;;;;;;;6.81;100.00;103746.00;5053750;28;20383;-61
2023/02/10 11:18:05;;;;;;;24.42;11.88;;;;;;;6.74;100.00;103746.66;5029694;28;20376;-64
2023/02/10 11:20:35;;;;;;;28.90;12.38;;;;;;;6.79;100.00;103744.19;5031322;28;20087;-62